createdAt,value
2022-12-27T00:01:51.903Z,1.50
2022-12-27T00:05:18.777Z,1.50
2022-12-27T00:08:46.299Z,1.80
2022-12-27T00:12:13.251Z,1.20
2022-12-27T00:15:40.188Z,1.40
2022-12-27T00:19:07.433Z,1.70
2022-12-27T00:22:34.279Z,1.40
2022-12-27T00:26:05.090Z,2.30
2022-12-27T00:29:31.936Z,2.10
2022-12-27T00:32:58.918Z,2.30
2022-12-27T00:36:27.663Z,1.90
2022-12-27T00:39:54.634Z,4.10
2022-12-27T00:43:21.574Z,2.80
2022-12-27T00:46:48.725Z,3.40
2022-12-27T00:50:16.067Z,2.50
2022-12-27T00:53:44.761Z,2.80
2022-12-27T00:57:11.593Z,3.80
2022-12-27T01:00:38.848Z,3.80
2022-12-27T01:04:06.778Z,2.10
2022-12-27T01:07:34.204Z,2.20
2022-12-27T01:11:01.275Z,2.30
2022-12-27T01:14:28.350Z,2.30
2022-12-27T01:17:55.359Z,2.70
2022-12-27T01:21:27.994Z,1.90
2022-12-27T01:24:55.549Z,2.30
2022-12-27T01:28:22.381Z,1.90
2022-12-27T01:31:50.283Z,1.50
2022-12-27T01:35:17.377Z,2.50
2022-12-27T01:38:44.771Z,1.90
2022-12-27T01:42:35.848Z,1.60
2022-12-27T01:46:04.029Z,2.00
2022-12-27T01:49:31.270Z,2.10
2022-12-27T01:53:03.684Z,1.80
2022-12-27T01:56:33.016Z,2.30
2022-12-27T02:00:00.016Z,1.70
2022-12-27T02:03:30.459Z,2.10
2022-12-27T02:06:58.064Z,2.10
2022-12-27T02:10:25.252Z,2.70
2022-12-27T02:13:52.257Z,1.60
2022-12-27T02:17:21.255Z,2.40
2022-12-27T02:21:09.169Z,2.10
2022-12-27T02:24:56.203Z,2.60
2022-12-27T02:28:35.723Z,2.20
2022-12-27T02:32:08.914Z,2.30
2022-12-27T02:35:40.521Z,1.60
2022-12-27T02:39:09.964Z,2.30
2022-12-27T02:42:54.721Z,2.30
2022-12-27T02:46:42.822Z,2.10
2022-12-27T02:50:30.606Z,2.00
2022-12-27T02:54:10.546Z,1.90
2022-12-27T02:57:50.269Z,2.00
2022-12-27T03:05:16.940Z,2.60
2022-12-27T03:08:48.390Z,1.80
2022-12-27T03:12:43.470Z,1.90
2022-12-27T03:16:22.204Z,2.20
2022-12-27T03:20:10.441Z,2.40
2022-12-27T03:23:58.050Z,1.90
2022-12-27T03:27:30.459Z,2.40
2022-12-27T03:31:18.799Z,2.00
2022-12-27T03:34:52.216Z,3.00
2022-12-27T03:38:19.186Z,2.20
2022-12-27T03:42:07.389Z,32.00
2022-12-27T03:46:03.456Z,17.10
2022-12-27T03:49:36.559Z,14.90
2022-12-27T03:53:10.749Z,27.80
2022-12-27T03:56:38.132Z,10.70
2022-12-27T04:00:06.196Z,7.00
2022-12-27T04:03:40.140Z,9.40
2022-12-27T04:07:07.656Z,21.80
2022-12-27T04:10:52.086Z,8.00
2022-12-27T04:14:36.943Z,3.30
2022-12-27T04:18:21.692Z,4.60
2022-12-27T04:22:06.271Z,4.60
2022-12-27T04:25:51.097Z,5.90
2022-12-27T04:29:35.666Z,4.00
2022-12-27T04:33:20.247Z,4.40
2022-12-27T04:36:47.159Z,4.50
2022-12-27T04:40:32.416Z,4.40
2022-12-27T04:44:17.115Z,2.70
2022-12-27T04:48:01.494Z,2.80
2022-12-27T04:51:45.331Z,2.50
2022-12-27T04:55:22.563Z,3.00
2022-12-27T04:59:03.535Z,3.40
2022-12-27T05:02:30.620Z,4.00
2022-12-27T05:05:58.004Z,3.80
2022-12-27T05:09:42.001Z,3.80
2022-12-27T05:13:30.667Z,6.70
2022-12-27T05:16:57.685Z,4.40
2022-12-27T05:20:25.155Z,3.40
2022-12-27T05:24:09.099Z,6.40
2022-12-27T05:27:36.057Z,7.50
2022-12-27T05:31:04.913Z,5.90
2022-12-27T05:34:32.208Z,7.00
2022-12-27T05:37:59.180Z,7.80
2022-12-27T05:41:26.960Z,5.90
2022-12-27T05:44:54.101Z,6.50
2022-12-27T05:48:21.169Z,4.90
2022-12-27T05:51:48.133Z,4.30
2022-12-27T05:55:15.074Z,9.00
2022-12-27T05:58:42.009Z,10.70
2022-12-27T06:02:08.987Z,10.00
2022-12-27T06:05:35.993Z,10.60
2022-12-27T06:09:02.908Z,14.20
2022-12-27T06:12:30.228Z,12.50
2022-12-27T06:15:58.979Z,12.90
2022-12-27T06:19:26.025Z,10.00
2022-12-27T06:22:53.193Z,7.10
2022-12-27T06:26:22.441Z,7.50
2022-12-27T06:29:49.531Z,7.50
2022-12-27T06:33:16.549Z,8.30
2022-12-27T06:36:49.816Z,7.00
2022-12-27T06:40:16.900Z,8.30
2022-12-27T06:43:44.297Z,7.90
2022-12-27T06:47:11.297Z,10.20
2022-12-27T06:50:38.915Z,6.10
2022-12-27T06:54:06.650Z,5.50
2022-12-27T06:57:33.505Z,4.10
2022-12-27T07:01:07.438Z,7.20
2022-12-27T07:04:34.574Z,6.80
2022-12-27T07:08:01.512Z,8.00
2022-12-27T07:11:28.797Z,5.40
2022-12-27T07:14:55.643Z,10.90
2022-12-27T07:18:22.697Z,4.70
2022-12-27T07:21:49.843Z,2.90
2022-12-27T07:25:16.771Z,3.20
2022-12-27T07:28:44.300Z,2.80
2022-12-27T07:32:11.326Z,2.70
2022-12-27T07:35:42.192Z,2.80
2022-12-27T07:39:12.521Z,2.20
2022-12-27T07:42:39.454Z,2.90
2022-12-27T07:46:09.048Z,2.90
2022-12-27T07:53:01.419Z,4.80
2022-12-27T07:56:30.538Z,3.00
2022-12-27T07:59:57.427Z,7.30
2022-12-27T08:03:24.711Z,3.90
2022-12-27T08:06:51.899Z,3.40
2022-12-27T08:10:19.213Z,3.10
2022-12-27T08:13:47.380Z,2.70
2022-12-27T08:17:20.361Z,2.70
2022-12-27T08:20:47.357Z,2.90
2022-12-27T08:24:14.309Z,3.40
2022-12-27T08:27:41.517Z,3.10
2022-12-27T08:31:11.336Z,2.90
2022-12-27T08:34:38.563Z,3.30
2022-12-27T08:38:05.418Z,2.50
2022-12-27T08:41:32.737Z,2.80
2022-12-27T08:44:59.854Z,3.30
2022-12-27T08:48:26.998Z,4.60
2022-12-27T08:51:54.104Z,5.00
2022-12-27T08:55:21.421Z,3.70
2022-12-27T08:58:49.461Z,5.10
2022-12-27T09:02:16.640Z,4.80
2022-12-27T09:05:43.793Z,3.00
2022-12-27T09:09:11.122Z,3.10
2022-12-27T09:12:37.989Z,4.90
2022-12-27T09:16:11.067Z,3.30
2022-12-27T09:19:38.226Z,3.40
2022-12-27T09:23:05.317Z,3.00
2022-12-27T09:26:33.175Z,4.80
2022-12-27T09:30:00.082Z,5.40
2022-12-27T09:33:27.901Z,5.50
2022-12-27T09:36:55.736Z,7.10
2022-12-27T09:40:23.032Z,7.40
2022-12-27T09:44:00.327Z,6.60
2022-12-27T09:47:34.228Z,7.10
2022-12-27T09:51:05.201Z,6.90
2022-12-27T09:54:38.366Z,6.90
2022-12-27T09:58:32.242Z,6.80
2022-12-27T10:02:00.124Z,6.10
2022-12-27T10:05:33.848Z,5.60
2022-12-27T10:09:05.647Z,4.90
2022-12-27T10:12:49.232Z,4.40
2022-12-27T10:16:27.975Z,4.20
2022-12-27T10:20:04.122Z,5.20
2022-12-27T10:23:34.229Z,4.40
2022-12-27T10:27:01.398Z,4.30
2022-12-27T10:30:30.973Z,4.10
2022-12-27T10:33:58.253Z,4.80
2022-12-27T10:37:25.685Z,3.30
2022-12-27T10:40:58.731Z,5.20
2022-12-27T10:44:26.548Z,4.50
2022-12-27T10:47:54.811Z,4.50
2022-12-27T10:51:23.566Z,3.70
2022-12-27T10:54:55.774Z,6.90
2022-12-27T10:58:36.946Z,5.70
2022-12-27T11:02:20.474Z,4.10
2022-12-27T11:06:02.484Z,3.30
2022-12-27T11:09:38.125Z,3.60
2022-12-27T11:13:08.124Z,54.70
2022-12-27T11:16:37.764Z,12.30
2022-12-27T11:20:10.610Z,11.20
2022-12-27T11:23:44.527Z,5.80
2022-12-27T11:27:24.455Z,5.70
2022-12-27T11:30:57.548Z,9.90
2022-12-27T11:34:31.651Z,7.30
2022-12-27T11:37:59.271Z,7.40
2022-12-27T11:41:34.223Z,6.90
2022-12-27T11:45:12.571Z,7.90
2022-12-27T11:48:43.314Z,7.20
2022-12-27T11:52:35.134Z,6.00
2022-12-27T11:56:25.543Z,6.50
2022-12-27T12:00:00.678Z,6.60
2022-12-27T12:04:00.162Z,6.70
2022-12-27T12:07:48.302Z,5.90
2022-12-27T12:11:30.551Z,5.60
2022-12-27T12:15:18.587Z,5.60
2022-12-27T12:19:00.753Z,6.80
2022-12-27T12:22:44.813Z,6.40
2022-12-27T12:26:21.741Z,6.20
2022-12-27T12:30:13.941Z,7.40
2022-12-27T12:34:05.807Z,9.20
2022-12-27T12:37:55.359Z,8.40
2022-12-27T12:41:53.597Z,52.50
2022-12-27T12:45:31.123Z,5.10
2022-12-27T12:49:17.236Z,6.90
2022-12-27T12:53:03.252Z,5.00
2022-12-27T12:56:48.122Z,5.30
2022-12-27T13:00:28.637Z,6.30
2022-12-27T13:04:24.103Z,6.60
2022-12-27T13:08:02.726Z,10.50
2022-12-27T13:11:41.773Z,5.90
2022-12-27T13:15:23.374Z,4.10
2022-12-27T13:19:01.993Z,4.80
2022-12-27T13:22:41.458Z,3.90
2022-12-27T13:26:19.192Z,4.00
2022-12-27T13:30:06.249Z,3.90
2022-12-27T13:33:46.023Z,4.70
2022-12-27T13:37:27.156Z,5.90
2022-12-27T13:41:30.545Z,6.00
2022-12-27T13:45:11.140Z,7.30
2022-12-27T13:48:55.192Z,7.30
2022-12-27T13:52:42.703Z,7.90
2022-12-27T13:56:52.832Z,10.80
2022-12-27T14:00:18.232Z,8.50
2022-12-27T14:04:17.970Z,7.80
2022-12-27T14:07:57.668Z,7.70
2022-12-27T14:11:40.534Z,7.90
2022-12-27T14:15:13.811Z,9.50
2022-12-27T14:18:54.139Z,11.40
2022-12-27T14:22:48.455Z,6.00
2022-12-27T14:26:54.630Z,5.10
2022-12-27T14:30:44.134Z,5.60
2022-12-27T14:34:39.779Z,5.00
2022-12-27T14:38:35.910Z,8.50
2022-12-27T14:42:33.500Z,6.10
2022-12-27T14:46:44.717Z,17.10
2022-12-27T14:50:42.487Z,4.30
2022-12-27T14:54:52.016Z,3.90
2022-12-27T15:02:17.657Z,6.00
2022-12-27T15:06:04.264Z,6.70
2022-12-27T15:09:41.271Z,6.00
2022-12-27T15:13:16.979Z,7.00
2022-12-27T15:16:54.059Z,8.00
2022-12-27T15:20:33.747Z,7.10
2022-12-27T15:24:13.434Z,7.50
2022-12-27T15:27:50.181Z,6.60
2022-12-27T15:31:28.442Z,5.90
2022-12-27T15:35:08.015Z,5.10
2022-12-27T15:38:54.142Z,4.90
2022-12-27T15:42:54.174Z,5.40
2022-12-27T15:46:43.825Z,5.40
2022-12-27T15:50:29.533Z,4.70
2022-12-27T15:54:29.126Z,4.50
2022-12-27T16:01:33.890Z,4.00
2022-12-27T16:05:11.190Z,4.90
2022-12-27T16:08:42.475Z,4.30
2022-12-27T16:12:14.224Z,4.10
2022-12-27T16:15:53.523Z,4.70
2022-12-27T16:19:48.673Z,5.50
2022-12-27T16:23:15.647Z,23.10
2022-12-27T16:26:53.133Z,35.20
2022-12-27T16:30:37.021Z,17.60
2022-12-27T16:34:15.060Z,7.60
2022-12-27T16:37:45.966Z,9.70
2022-12-27T16:41:22.851Z,9.70
2022-12-27T16:45:02.871Z,8.30
2022-12-27T16:48:43.329Z,7.20
2022-12-27T16:52:37.188Z,7.50
2022-12-27T16:56:25.385Z,7.20
2022-12-27T17:00:05.845Z,8.40
2022-12-27T17:03:48.121Z,6.90
2022-12-27T17:07:52.007Z,7.60
2022-12-27T17:11:30.206Z,6.30
2022-12-27T17:15:06.109Z,7.10
2022-12-27T17:18:35.848Z,6.40
2022-12-27T17:25:38.943Z,6.40
2022-12-27T17:29:20.032Z,6.50
2022-12-27T17:33:06.696Z,6.20
2022-12-27T17:36:47.006Z,9.30
2022-12-27T17:40:27.597Z,8.00
2022-12-27T17:44:19.582Z,6.70
2022-12-27T17:48:01.730Z,7.30
2022-12-27T17:51:32.520Z,10.80
2022-12-27T17:55:25.632Z,9.30
2022-12-27T17:58:58.060Z,35.10
2022-12-27T18:02:31.347Z,30.80
2022-12-27T18:05:58.867Z,14.70
2022-12-27T18:09:37.386Z,11.30
2022-12-27T18:13:08.075Z,9.20
2022-12-27T18:16:40.959Z,9.40
2022-12-27T18:20:31.208Z,10.10
2022-12-27T18:24:00.396Z,9.00
2022-12-27T18:27:28.132Z,8.00
2022-12-27T18:30:58.642Z,7.00
2022-12-27T18:34:32.164Z,7.00
2022-12-27T18:37:59.496Z,7.40
2022-12-27T18:41:28.774Z,7.10
2022-12-27T18:44:59.753Z,7.10
2022-12-27T18:48:29.217Z,7.20
2022-12-27T18:51:56.565Z,6.10
2022-12-27T18:55:27.591Z,6.00
2022-12-27T18:59:05.919Z,9.10
2022-12-27T19:02:36.301Z,9.00
2022-12-27T19:06:14.328Z,7.90
2022-12-27T19:09:50.230Z,8.10
2022-12-27T19:13:24.560Z,7.30
2022-12-27T19:16:54.942Z,6.70
2022-12-27T19:20:25.839Z,8.60
2022-12-27T19:23:53.109Z,13.60
2022-12-27T19:27:26.629Z,15.80
2022-12-27T19:31:16.421Z,12.70
2022-12-27T19:34:47.689Z,9.70
2022-12-27T19:38:21.867Z,9.00
2022-12-27T19:41:49.469Z,8.50
2022-12-27T19:45:19.381Z,9.70
2022-12-27T19:49:01.101Z,33.10
2022-12-27T19:52:34.071Z,42.70
2022-12-27T19:56:01.960Z,18.80
2022-12-27T19:59:29.151Z,13.70
2022-12-27T20:02:56.267Z,13.60
2022-12-27T20:06:26.845Z,15.30
2022-12-27T20:09:55.382Z,15.30
2022-12-27T20:13:22.835Z,12.10
2022-12-27T20:16:50.115Z,10.50
2022-12-27T20:20:17.137Z,10.20
2022-12-27T20:23:44.860Z,11.10
2022-12-27T20:27:11.754Z,14.50
2022-12-27T20:30:41.015Z,12.30
2022-12-27T20:34:10.110Z,11.80
2022-12-27T20:37:36.963Z,7.50
2022-12-27T20:41:10.270Z,10.50
2022-12-27T20:44:37.149Z,11.60
2022-12-27T20:48:05.448Z,10.80
2022-12-27T20:51:33.487Z,12.40
2022-12-27T20:55:00.441Z,11.20
2022-12-27T20:58:27.625Z,15.30
2022-12-27T21:01:57.173Z,18.80
2022-12-27T21:05:24.797Z,19.90
2022-12-27T21:08:56.699Z,22.50
2022-12-27T21:12:24.906Z,22.70
2022-12-27T21:15:52.052Z,22.80
2022-12-27T21:19:19.907Z,27.40
2022-12-27T21:22:46.897Z,25.40
2022-12-27T21:26:15.921Z,32.30
2022-12-27T21:29:42.868Z,26.50
2022-12-27T21:33:09.787Z,22.60
2022-12-27T21:36:38.316Z,19.20
2022-12-27T21:40:06.221Z,19.80
2022-12-27T21:43:34.449Z,16.40
2022-12-27T21:47:01.742Z,17.40
2022-12-27T21:50:33.869Z,14.70
2022-12-27T21:54:05.051Z,15.40
2022-12-27T21:57:31.924Z,13.20
2022-12-27T22:01:08.356Z,17.00
2022-12-27T22:04:36.264Z,15.10
2022-12-27T22:08:03.220Z,17.10
2022-12-27T22:11:31.831Z,17.70
2022-12-27T22:14:58.848Z,22.40
2022-12-27T22:18:26.413Z,20.60
2022-12-27T22:21:53.360Z,19.80
2022-12-27T22:25:20.605Z,18.30
2022-12-27T22:28:48.073Z,18.10
2022-12-27T22:32:15.298Z,16.50
2022-12-27T22:35:42.509Z,17.00
2022-12-27T22:39:10.206Z,18.60
2022-12-27T22:42:37.300Z,19.30
2022-12-27T22:46:08.813Z,18.80
2022-12-27T22:49:36.170Z,17.30
2022-12-27T22:53:03.266Z,14.70
2022-12-27T22:56:31.747Z,14.80
2022-12-27T23:00:01.565Z,14.30
2022-12-27T23:03:29.229Z,14.40
2022-12-27T23:06:56.223Z,14.90
2022-12-27T23:10:23.220Z,13.60
2022-12-27T23:13:55.112Z,13.30
2022-12-27T23:17:23.016Z,13.10
2022-12-27T23:21:20.867Z,14.00
2022-12-27T23:24:37.596Z,12.60
2022-12-27T23:28:04.712Z,13.80
2022-12-27T23:31:31.926Z,11.60
2022-12-27T23:34:58.782Z,10.90
2022-12-27T23:38:26.360Z,11.70
2022-12-27T23:41:53.469Z,11.30
2022-12-27T23:45:20.391Z,12.80
2022-12-27T23:48:48.049Z,13.10
2022-12-27T23:52:15.048Z,13.90
2022-12-27T23:55:42.227Z,14.50
2022-12-27T23:59:10.345Z,14.40
